sensor_id;sensor_type;location;lat;lon;timestamp;temperature;humidity
23681;DHT22;62915;50.832;4.462;2022-08-19T00:00:27;21.50;99.90
23681;DHT22;62915;50.832;4.462;2022-08-19T00:02:53;21.40;99.90
23681;DHT22;62915;50.832;4.462;2022-08-19T00:05:20;21.40;99.90
23681;DHT22;62915;50.832;4.462;2022-08-19T00:07:47;21.40;99.90
23681;DHT22;62915;50.832;4.462;2022-08-19T00:10:15;21.30;99.90
23681;DHT22;62915;50.832;4.462;2022-08-19T00:12:41;21.30;99.90
23681;DHT22;62915;50.832;4.462;2022-08-19T00:15:14;21.30;99.90
23681;DHT22;62915;50.832;4.462;2022-08-19T00:17:42;21.30;99.90
23681;DHT22;62915;50.832;4.462;2022-08-19T00:20:10;21.30;99.90
23681;DHT22;62915;50.832;4.462;2022-08-19T00:22:37;21.30;99.90
23681;DHT22;62915;50.832;4.462;2022-08-19T00:25:05;21.20;99.90
23681;DHT22;62915;50.832;4.462;2022-08-19T00:27:31;21.20;99.90
23681;DHT22;62915;50.832;4.462;2022-08-19T00:29:56;21.20;99.90
23681;DHT22;62915;50.832;4.462;2022-08-19T00:32:24;21.20;99.90
23681;DHT22;62915;50.832;4.462;2022-08-19T00:34:51;21.20;99.90
23681;DHT22;62915;50.832;4.462;2022-08-19T00:37:22;21.30;99.90
23681;DHT22;62915;50.832;4.462;2022-08-19T00:39:49;21.30;99.90
23681;DHT22;62915;50.832;4.462;2022-08-19T00:42:17;21.40;99.90
23681;DHT22;62915;50.832;4.462;2022-08-19T00:44:43;21.50;99.90
23681;DHT22;62915;50.832;4.462;2022-08-19T00:47:09;21.60;99.90
23681;DHT22;62915;50.832;4.462;2022-08-19T00:49:38;21.60;99.90
23681;DHT22;62915;50.832;4.462;2022-08-19T00:52:21;21.70;99.90
23681;DHT22;62915;50.832;4.462;2022-08-19T00:54:48;21.70;99.90
23681;DHT22;62915;50.832;4.462;2022-08-19T00:57:17;21.70;99.90
23681;DHT22;62915;50.832;4.462;2022-08-19T00:59:47;21.80;99.90
23681;DHT22;62915;50.832;4.462;2022-08-19T01:02:15;21.80;99.90
23681;DHT22;62915;50.832;4.462;2022-08-19T01:04:41;21.80;99.90
23681;DHT22;62915;50.832;4.462;2022-08-19T01:07:07;21.80;99.90
23681;DHT22;62915;50.832;4.462;2022-08-19T01:09:33;21.80;99.90
23681;DHT22;62915;50.832;4.462;2022-08-19T01:11:59;21.80;99.90
23681;DHT22;62915;50.832;4.462;2022-08-19T01:14:25;21.80;99.90
23681;DHT22;62915;50.832;4.462;2022-08-19T01:16:52;21.80;99.90
23681;DHT22;62915;50.832;4.462;2022-08-19T01:19:29;21.80;99.90
23681;DHT22;62915;50.832;4.462;2022-08-19T01:24:49;21.80;99.90
23681;DHT22;62915;50.832;4.462;2022-08-19T01:27:15;21.70;99.90
23681;DHT22;62915;50.832;4.462;2022-08-19T01:29:42;21.70;99.90
23681;DHT22;62915;50.832;4.462;2022-08-19T01:32:14;21.60;99.90
23681;DHT22;62915;50.832;4.462;2022-08-19T01:34:41;21.60;99.90
23681;DHT22;62915;50.832;4.462;2022-08-19T01:37:11;21.60;99.90
23681;DHT22;62915;50.832;4.462;2022-08-19T01:39:39;21.60;99.90
23681;DHT22;62915;50.832;4.462;2022-08-19T01:42:07;21.60;99.90
23681;DHT22;62915;50.832;4.462;2022-08-19T01:44:35;21.50;99.90
23681;DHT22;62915;50.832;4.462;2022-08-19T01:47:01;21.50;99.90
23681;DHT22;62915;50.832;4.462;2022-08-19T01:49:27;21.50;99.90
23681;DHT22;62915;50.832;4.462;2022-08-19T01:51:54;21.50;99.90
23681;DHT22;62915;50.832;4.462;2022-08-19T01:54:22;21.50;99.90
23681;DHT22;62915;50.832;4.462;2022-08-19T01:56:48;21.40;99.90
23681;DHT22;62915;50.832;4.462;2022-08-19T01:59:17;21.30;99.90
23681;DHT22;62915;50.832;4.462;2022-08-19T02:01:44;21.30;99.90
23681;DHT22;62915;50.832;4.462;2022-08-19T02:04:10;21.30;99.90
23681;DHT22;62915;50.832;4.462;2022-08-19T02:06:35;21.30;99.90
23681;DHT22;62915;50.832;4.462;2022-08-19T02:09:03;21.30;99.90
23681;DHT22;62915;50.832;4.462;2022-08-19T02:11:33;21.30;99.90
23681;DHT22;62915;50.832;4.462;2022-08-19T02:14:01;21.20;99.90
23681;DHT22;62915;50.832;4.462;2022-08-19T02:16:28;21.20;99.90
23681;DHT22;62915;50.832;4.462;2022-08-19T02:18:54;21.20;99.90
23681;DHT22;62915;50.832;4.462;2022-08-19T02:21:23;21.10;99.90
23681;DHT22;62915;50.832;4.462;2022-08-19T02:23:49;21.10;99.90
23681;DHT22;62915;50.832;4.462;2022-08-19T02:26:16;21.10;99.90
23681;DHT22;62915;50.832;4.462;2022-08-19T02:28:42;21.00;99.90
23681;DHT22;62915;50.832;4.462;2022-08-19T02:31:19;21.00;99.90
23681;DHT22;62915;50.832;4.462;2022-08-19T02:33:46;21.00;99.90
23681;DHT22;62915;50.832;4.462;2022-08-19T02:36:14;20.90;99.90
23681;DHT22;62915;50.832;4.462;2022-08-19T02:38:40;20.90;99.90
23681;DHT22;62915;50.832;4.462;2022-08-19T02:41:28;20.90;99.90
23681;DHT22;62915;50.832;4.462;2022-08-19T02:43:58;20.90;99.90
23681;DHT22;62915;50.832;4.462;2022-08-19T02:46:26;20.90;99.90
23681;DHT22;62915;50.832;4.462;2022-08-19T02:48:55;20.90;99.90
23681;DHT22;62915;50.832;4.462;2022-08-19T02:51:27;20.80;99.90
23681;DHT22;62915;50.832;4.462;2022-08-19T02:53:53;20.80;99.90
23681;DHT22;62915;50.832;4.462;2022-08-19T02:56:20;20.80;99.90
23681;DHT22;62915;50.832;4.462;2022-08-19T02:58:46;20.70;99.90
23681;DHT22;62915;50.832;4.462;2022-08-19T03:01:21;20.70;99.90
23681;DHT22;62915;50.832;4.462;2022-08-19T03:03:47;20.70;99.90
23681;DHT22;62915;50.832;4.462;2022-08-19T03:06:15;20.70;99.90
23681;DHT22;62915;50.832;4.462;2022-08-19T03:08:43;20.70;99.90
23681;DHT22;62915;50.832;4.462;2022-08-19T03:11:24;20.60;99.90
23681;DHT22;62915;50.832;4.462;2022-08-19T03:13:50;20.60;99.90
23681;DHT22;62915;50.832;4.462;2022-08-19T03:16:18;20.50;99.90
23681;DHT22;62915;50.832;4.462;2022-08-19T03:18:44;20.40;99.90
23681;DHT22;62915;50.832;4.462;2022-08-19T03:21:17;20.40;99.90
23681;DHT22;62915;50.832;4.462;2022-08-19T03:23:43;20.40;99.90
23681;DHT22;62915;50.832;4.462;2022-08-19T03:26:09;20.40;99.90
23681;DHT22;62915;50.832;4.462;2022-08-19T03:28:35;20.40;99.90
23681;DHT22;62915;50.832;4.462;2022-08-19T03:31:05;20.40;99.90
23681;DHT22;62915;50.832;4.462;2022-08-19T03:33:33;20.40;99.90
23681;DHT22;62915;50.832;4.462;2022-08-19T03:36:15;20.30;99.90
23681;DHT22;62915;50.832;4.462;2022-08-19T03:38:44;20.30;99.90
23681;DHT22;62915;50.832;4.462;2022-08-19T03:41:13;20.30;99.90
23681;DHT22;62915;50.832;4.462;2022-08-19T03:43:41;20.20;99.90
23681;DHT22;62915;50.832;4.462;2022-08-19T03:46:10;20.20;99.90
23681;DHT22;62915;50.832;4.462;2022-08-19T03:48:38;20.10;99.90
23681;DHT22;62915;50.832;4.462;2022-08-19T03:51:06;20.10;99.90
23681;DHT22;62915;50.832;4.462;2022-08-19T03:53:34;20.10;99.90
23681;DHT22;62915;50.832;4.462;2022-08-19T03:56:01;20.10;99.90
23681;DHT22;62915;50.832;4.462;2022-08-19T03:58:28;20.20;99.90
23681;DHT22;62915;50.832;4.462;2022-08-19T04:00:58;20.10;99.90
23681;DHT22;62915;50.832;4.462;2022-08-19T04:03:24;20.10;99.90
23681;DHT22;62915;50.832;4.462;2022-08-19T04:05:52;20.00;99.90
23681;DHT22;62915;50.832;4.462;2022-08-19T04:08:19;20.00;99.90
23681;DHT22;62915;50.832;4.462;2022-08-19T04:10:48;20.00;99.90
23681;DHT22;62915;50.832;4.462;2022-08-19T04:13:18;20.00;99.90
23681;DHT22;62915;50.832;4.462;2022-08-19T04:15:45;20.00;99.90
23681;DHT22;62915;50.832;4.462;2022-08-19T04:18:12;19.90;99.90
23681;DHT22;62915;50.832;4.462;2022-08-19T04:20:44;19.90;99.90
23681;DHT22;62915;50.832;4.462;2022-08-19T04:23:12;19.80;99.90
23681;DHT22;62915;50.832;4.462;2022-08-19T04:25:42;19.80;99.90
23681;DHT22;62915;50.832;4.462;2022-08-19T04:28:09;19.70;99.90
23681;DHT22;62915;50.832;4.462;2022-08-19T04:30:41;19.60;99.90
23681;DHT22;62915;50.832;4.462;2022-08-19T04:33:09;19.60;99.90
23681;DHT22;62915;50.832;4.462;2022-08-19T04:35:40;19.60;99.90
23681;DHT22;62915;50.832;4.462;2022-08-19T04:38:07;19.60;99.90
23681;DHT22;62915;50.832;4.462;2022-08-19T04:40:34;19.50;99.90
23681;DHT22;62915;50.832;4.462;2022-08-19T04:43:23;19.50;99.90
23681;DHT22;62915;50.832;4.462;2022-08-19T04:45:49;19.50;99.90
23681;DHT22;62915;50.832;4.462;2022-08-19T04:48:15;19.50;99.90
23681;DHT22;62915;50.832;4.462;2022-08-19T04:50:42;19.50;99.90
23681;DHT22;62915;50.832;4.462;2022-08-19T04:53:09;19.50;99.90
23681;DHT22;62915;50.832;4.462;2022-08-19T04:55:37;19.50;99.90
23681;DHT22;62915;50.832;4.462;2022-08-19T04:58:03;19.40;99.90
23681;DHT22;62915;50.832;4.462;2022-08-19T05:00:29;19.40;99.90
23681;DHT22;62915;50.832;4.462;2022-08-19T05:02:55;19.30;99.90
23681;DHT22;62915;50.832;4.462;2022-08-19T05:05:20;19.30;99.90
23681;DHT22;62915;50.832;4.462;2022-08-19T05:07:46;19.30;99.90
23681;DHT22;62915;50.832;4.462;2022-08-19T05:10:12;19.40;99.90
23681;DHT22;62915;50.832;4.462;2022-08-19T05:12:38;19.50;99.90
23681;DHT22;62915;50.832;4.462;2022-08-19T05:15:05;19.50;99.90
23681;DHT22;62915;50.832;4.462;2022-08-19T05:17:34;19.40;99.90
23681;DHT22;62915;50.832;4.462;2022-08-19T05:19:59;19.50;99.90
23681;DHT22;62915;50.832;4.462;2022-08-19T05:22:46;19.40;99.90
23681;DHT22;62915;50.832;4.462;2022-08-19T05:25:16;19.40;99.90
23681;DHT22;62915;50.832;4.462;2022-08-19T05:27:44;19.50;99.90
23681;DHT22;62915;50.832;4.462;2022-08-19T05:30:11;19.50;99.90
23681;DHT22;62915;50.832;4.462;2022-08-19T05:32:38;19.50;99.90
23681;DHT22;62915;50.832;4.462;2022-08-19T05:35:05;19.50;99.90
23681;DHT22;62915;50.832;4.462;2022-08-19T05:37:31;19.50;99.90
23681;DHT22;62915;50.832;4.462;2022-08-19T05:39:57;19.50;99.90
23681;DHT22;62915;50.832;4.462;2022-08-19T05:42:23;19.50;99.90
23681;DHT22;62915;50.832;4.462;2022-08-19T05:44:50;19.50;99.90
23681;DHT22;62915;50.832;4.462;2022-08-19T05:47:16;19.50;99.90
23681;DHT22;62915;50.832;4.462;2022-08-19T05:49:44;19.50;99.90
23681;DHT22;62915;50.832;4.462;2022-08-19T05:52:12;19.50;99.90
23681;DHT22;62915;50.832;4.462;2022-08-19T05:54:39;19.50;99.90
23681;DHT22;62915;50.832;4.462;2022-08-19T05:57:07;19.50;99.90
23681;DHT22;62915;50.832;4.462;2022-08-19T05:59:33;19.60;99.90
23681;DHT22;62915;50.832;4.462;2022-08-19T06:02:01;19.60;99.90
23681;DHT22;62915;50.832;4.462;2022-08-19T06:04:28;19.60;99.90
23681;DHT22;62915;50.832;4.462;2022-08-19T06:06:54;19.60;99.90
23681;DHT22;62915;50.832;4.462;2022-08-19T06:09:22;19.60;99.90
23681;DHT22;62915;50.832;4.462;2022-08-19T06:11:54;19.70;99.90
23681;DHT22;62915;50.832;4.462;2022-08-19T06:14:24;19.70;99.90
23681;DHT22;62915;50.832;4.462;2022-08-19T06:16:51;19.60;99.90
23681;DHT22;62915;50.832;4.462;2022-08-19T06:19:19;19.80;99.90
23681;DHT22;62915;50.832;4.462;2022-08-19T06:21:47;19.70;99.90
23681;DHT22;62915;50.832;4.462;2022-08-19T06:24:15;19.80;99.90
23681;DHT22;62915;50.832;4.462;2022-08-19T06:26:44;19.90;99.90
23681;DHT22;62915;50.832;4.462;2022-08-19T06:29:12;19.90;99.90
23681;DHT22;62915;50.832;4.462;2022-08-19T06:31:43;19.90;99.90
23681;DHT22;62915;50.832;4.462;2022-08-19T06:34:09;20.10;99.90
23681;DHT22;62915;50.832;4.462;2022-08-19T06:36:44;20.10;99.90
23681;DHT22;62915;50.832;4.462;2022-08-19T06:39:19;20.20;99.90
23681;DHT22;62915;50.832;4.462;2022-08-19T06:41:48;20.20;99.90
23681;DHT22;62915;50.832;4.462;2022-08-19T06:44:14;20.20;99.90
23681;DHT22;62915;50.832;4.462;2022-08-19T06:46:41;20.20;99.90
23681;DHT22;62915;50.832;4.462;2022-08-19T06:49:07;20.30;99.90
23681;DHT22;62915;50.832;4.462;2022-08-19T06:51:36;20.30;99.90
23681;DHT22;62915;50.832;4.462;2022-08-19T06:54:01;20.40;99.90
23681;DHT22;62915;50.832;4.462;2022-08-19T06:56:29;20.50;99.90
23681;DHT22;62915;50.832;4.462;2022-08-19T06:59:12;20.60;99.90
23681;DHT22;62915;50.832;4.462;2022-08-19T07:01:41;20.60;99.90
23681;DHT22;62915;50.832;4.462;2022-08-19T07:04:07;20.60;99.90
23681;DHT22;62915;50.832;4.462;2022-08-19T07:06:34;20.70;99.90
23681;DHT22;62915;50.832;4.462;2022-08-19T07:09:01;20.80;99.90
23681;DHT22;62915;50.832;4.462;2022-08-19T07:11:27;20.90;99.90
23681;DHT22;62915;50.832;4.462;2022-08-19T07:13:53;20.90;99.90
23681;DHT22;62915;50.832;4.462;2022-08-19T07:16:20;20.90;99.90
23681;DHT22;62915;50.832;4.462;2022-08-19T07:18:50;21.00;99.90
23681;DHT22;62915;50.832;4.462;2022-08-19T07:21:22;21.00;99.90
23681;DHT22;62915;50.832;4.462;2022-08-19T07:23:48;21.00;99.90
23681;DHT22;62915;50.832;4.462;2022-08-19T07:26:24;21.10;99.90
23681;DHT22;62915;50.832;4.462;2022-08-19T07:28:51;21.10;99.90
23681;DHT22;62915;50.832;4.462;2022-08-19T07:31:19;21.00;99.90
23681;DHT22;62915;50.832;4.462;2022-08-19T07:33:46;21.00;99.90
23681;DHT22;62915;50.832;4.462;2022-08-19T07:36:15;21.10;99.90
23681;DHT22;62915;50.832;4.462;2022-08-19T07:38:44;21.10;99.90
23681;DHT22;62915;50.832;4.462;2022-08-19T07:41:12;21.10;99.90
23681;DHT22;62915;50.832;4.462;2022-08-19T07:43:39;21.10;99.90
23681;DHT22;62915;50.832;4.462;2022-08-19T07:46:06;21.10;99.90
23681;DHT22;62915;50.832;4.462;2022-08-19T07:48:32;21.20;99.90
23681;DHT22;62915;50.832;4.462;2022-08-19T07:51:01;21.40;99.90
23681;DHT22;62915;50.832;4.462;2022-08-19T07:53:28;21.40;99.90
23681;DHT22;62915;50.832;4.462;2022-08-19T07:55:55;21.40;99.90
23681;DHT22;62915;50.832;4.462;2022-08-19T07:58:25;21.50;99.90
23681;DHT22;62915;50.832;4.462;2022-08-19T08:00:51;21.50;99.90
23681;DHT22;62915;50.832;4.462;2022-08-19T08:03:18;21.60;99.90
23681;DHT22;62915;50.832;4.462;2022-08-19T08:05:45;21.60;99.90
23681;DHT22;62915;50.832;4.462;2022-08-19T08:08:30;21.60;99.90
23681;DHT22;62915;50.832;4.462;2022-08-19T08:11:11;21.60;99.90
23681;DHT22;62915;50.832;4.462;2022-08-19T08:13:38;21.60;99.90
23681;DHT22;62915;50.832;4.462;2022-08-19T08:16:04;21.70;99.90
23681;DHT22;62915;50.832;4.462;2022-08-19T08:18:30;21.70;99.90
23681;DHT22;62915;50.832;4.462;2022-08-19T08:20:57;21.70;99.90
23681;DHT22;62915;50.832;4.462;2022-08-19T08:23:23;21.70;99.90
23681;DHT22;62915;50.832;4.462;2022-08-19T08:25:55;21.60;99.90
23681;DHT22;62915;50.832;4.462;2022-08-19T08:28:22;21.70;99.90
23681;DHT22;62915;50.832;4.462;2022-08-19T08:30:49;21.80;99.90
23681;DHT22;62915;50.832;4.462;2022-08-19T08:33:20;21.80;99.90
23681;DHT22;62915;50.832;4.462;2022-08-19T08:35:47;22.00;99.90
23681;DHT22;62915;50.832;4.462;2022-08-19T08:38:13;22.00;99.90
23681;DHT22;62915;50.832;4.462;2022-08-19T08:43:32;22.10;99.90
23681;DHT22;62915;50.832;4.462;2022-08-19T08:49:03;22.00;99.90
23681;DHT22;62915;50.832;4.462;2022-08-19T08:51:40;22.00;99.90
23681;DHT22;62915;50.832;4.462;2022-08-19T08:54:07;22.10;99.90
23681;DHT22;62915;50.832;4.462;2022-08-19T08:56:33;22.10;99.90
23681;DHT22;62915;50.832;4.462;2022-08-19T08:59:10;22.10;99.90
23681;DHT22;62915;50.832;4.462;2022-08-19T09:01:38;22.10;99.90
23681;DHT22;62915;50.832;4.462;2022-08-19T09:04:05;22.10;99.90
23681;DHT22;62915;50.832;4.462;2022-08-19T09:07:18;22.10;99.90
23681;DHT22;62915;50.832;4.462;2022-08-19T09:09:46;22.00;99.90
23681;DHT22;62915;50.832;4.462;2022-08-19T09:15:03;22.00;99.90
23681;DHT22;62915;50.832;4.462;2022-08-19T09:17:31;22.10;99.90
23681;DHT22;62915;50.832;4.462;2022-08-19T09:20:21;22.10;99.90
23681;DHT22;62915;50.832;4.462;2022-08-19T09:22:48;22.20;99.90
23681;DHT22;62915;50.832;4.462;2022-08-19T09:25:19;22.10;99.90
23681;DHT22;62915;50.832;4.462;2022-08-19T09:27:46;22.00;99.90
23681;DHT22;62915;50.832;4.462;2022-08-19T09:30:19;22.10;99.90
23681;DHT22;62915;50.832;4.462;2022-08-19T09:32:47;22.00;99.90
23681;DHT22;62915;50.832;4.462;2022-08-19T09:35:14;22.10;99.90
23681;DHT22;62915;50.832;4.462;2022-08-19T09:37:41;22.20;99.90
23681;DHT22;62915;50.832;4.462;2022-08-19T09:40:08;22.20;99.90
23681;DHT22;62915;50.832;4.462;2022-08-19T09:42:34;22.30;99.90
23681;DHT22;62915;50.832;4.462;2022-08-19T09:45:00;22.30;99.90
23681;DHT22;62915;50.832;4.462;2022-08-19T09:47:26;22.40;99.90
23681;DHT22;62915;50.832;4.462;2022-08-19T09:49:51;22.40;99.90
23681;DHT22;62915;50.832;4.462;2022-08-19T09:52:18;22.40;99.90
23681;DHT22;62915;50.832;4.462;2022-08-19T09:54:44;22.30;99.90
23681;DHT22;62915;50.832;4.462;2022-08-19T09:57:10;22.40;99.90
23681;DHT22;62915;50.832;4.462;2022-08-19T09:59:35;22.50;99.90
23681;DHT22;62915;50.832;4.462;2022-08-19T10:02:02;22.50;99.90
23681;DHT22;62915;50.832;4.462;2022-08-19T10:04:28;22.60;99.90
23681;DHT22;62915;50.832;4.462;2022-08-19T10:07:14;22.70;99.90
23681;DHT22;62915;50.832;4.462;2022-08-19T10:09:39;22.80;99.90
23681;DHT22;62915;50.832;4.462;2022-08-19T10:12:07;22.80;99.90
23681;DHT22;62915;50.832;4.462;2022-08-19T10:14:34;22.80;99.90
23681;DHT22;62915;50.832;4.462;2022-08-19T10:17:01;23.00;99.90
23681;DHT22;62915;50.832;4.462;2022-08-19T10:19:28;23.00;99.90
23681;DHT22;62915;50.832;4.462;2022-08-19T10:21:55;23.10;99.90
23681;DHT22;62915;50.832;4.462;2022-08-19T10:24:21;23.20;99.90
23681;DHT22;62915;50.832;4.462;2022-08-19T10:26:49;23.30;99.90
23681;DHT22;62915;50.832;4.462;2022-08-19T10:29:15;23.30;99.90
23681;DHT22;62915;50.832;4.462;2022-08-19T10:31:42;23.40;99.90
23681;DHT22;62915;50.832;4.462;2022-08-19T10:34:08;23.40;99.90
23681;DHT22;62915;50.832;4.462;2022-08-19T10:36:36;23.40;99.90
23681;DHT22;62915;50.832;4.462;2022-08-19T10:39:08;23.30;99.90
23681;DHT22;62915;50.832;4.462;2022-08-19T10:41:36;23.30;99.90
23681;DHT22;62915;50.832;4.462;2022-08-19T10:44:05;23.40;99.90
23681;DHT22;62915;50.832;4.462;2022-08-19T10:46:33;23.30;99.90
23681;DHT22;62915;50.832;4.462;2022-08-19T10:49:03;23.30;99.90
23681;DHT22;62915;50.832;4.462;2022-08-19T10:51:29;23.40;99.90
23681;DHT22;62915;50.832;4.462;2022-08-19T10:54:14;23.50;99.90
23681;DHT22;62915;50.832;4.462;2022-08-19T10:56:40;23.50;99.90
23681;DHT22;62915;50.832;4.462;2022-08-19T10:59:26;23.40;99.90
23681;DHT22;62915;50.832;4.462;2022-08-19T11:01:54;23.40;99.90
23681;DHT22;62915;50.832;4.462;2022-08-19T11:04:23;23.30;99.90
23681;DHT22;62915;50.832;4.462;2022-08-19T11:06:49;23.30;99.90
23681;DHT22;62915;50.832;4.462;2022-08-19T11:09:17;23.30;99.90
23681;DHT22;62915;50.832;4.462;2022-08-19T11:11:44;23.30;99.90
23681;DHT22;62915;50.832;4.462;2022-08-19T11:14:12;23.40;99.90
23681;DHT22;62915;50.832;4.462;2022-08-19T11:16:39;23.30;99.90
23681;DHT22;62915;50.832;4.462;2022-08-19T11:19:06;23.30;99.90
23681;DHT22;62915;50.832;4.462;2022-08-19T11:21:41;23.30;99.90
23681;DHT22;62915;50.832;4.462;2022-08-19T11:24:20;23.20;99.90
23681;DHT22;62915;50.832;4.462;2022-08-19T11:26:47;23.30;99.90
23681;DHT22;62915;50.832;4.462;2022-08-19T11:29:16;23.40;99.90
23681;DHT22;62915;50.832;4.462;2022-08-19T11:31:45;23.40;99.90
23681;DHT22;62915;50.832;4.462;2022-08-19T11:34:14;23.40;99.90
23681;DHT22;62915;50.832;4.462;2022-08-19T11:36:43;23.40;99.90
23681;DHT22;62915;50.832;4.462;2022-08-19T11:39:12;23.40;99.90
23681;DHT22;62915;50.832;4.462;2022-08-19T11:41:38;23.40;99.90
23681;DHT22;62915;50.832;4.462;2022-08-19T11:44:04;23.50;99.90
23681;DHT22;62915;50.832;4.462;2022-08-19T11:46:32;23.50;99.90
23681;DHT22;62915;50.832;4.462;2022-08-19T11:48:58;23.40;99.90
23681;DHT22;62915;50.832;4.462;2022-08-19T11:51:28;23.40;99.90
23681;DHT22;62915;50.832;4.462;2022-08-19T11:53:55;23.50;99.90
23681;DHT22;62915;50.832;4.462;2022-08-19T11:56:22;23.50;99.90
23681;DHT22;62915;50.832;4.462;2022-08-19T11:58:48;23.50;99.90
23681;DHT22;62915;50.832;4.462;2022-08-19T12:01:17;23.60;99.90
23681;DHT22;62915;50.832;4.462;2022-08-19T12:03:45;23.70;99.90
23681;DHT22;62915;50.832;4.462;2022-08-19T12:06:14;23.70;99.90
23681;DHT22;62915;50.832;4.462;2022-08-19T12:08:41;23.80;99.90
23681;DHT22;62915;50.832;4.462;2022-08-19T12:11:09;23.70;99.90
23681;DHT22;62915;50.832;4.462;2022-08-19T12:13:37;23.70;99.90
23681;DHT22;62915;50.832;4.462;2022-08-19T12:16:12;23.80;99.90
23681;DHT22;62915;50.832;4.462;2022-08-19T12:18:41;24.10;99.90
23681;DHT22;62915;50.832;4.462;2022-08-19T12:21:12;24.40;99.90
23681;DHT22;62915;50.832;4.462;2022-08-19T12:23:40;24.70;99.90
23681;DHT22;62915;50.832;4.462;2022-08-19T12:26:06;24.90;99.90
23681;DHT22;62915;50.832;4.462;2022-08-19T12:28:32;25.00;99.90
23681;DHT22;62915;50.832;4.462;2022-08-19T12:30:59;25.00;99.90
23681;DHT22;62915;50.832;4.462;2022-08-19T12:33:25;25.10;99.90
23681;DHT22;62915;50.832;4.462;2022-08-19T12:35:53;25.10;99.90
23681;DHT22;62915;50.832;4.462;2022-08-19T12:38:19;25.10;99.90
23681;DHT22;62915;50.832;4.462;2022-08-19T12:40:46;25.10;99.90
23681;DHT22;62915;50.832;4.462;2022-08-19T12:43:12;25.20;99.90
23681;DHT22;62915;50.832;4.462;2022-08-19T12:45:39;25.20;99.90
23681;DHT22;62915;50.832;4.462;2022-08-19T12:48:05;25.10;99.90
23681;DHT22;62915;50.832;4.462;2022-08-19T12:50:31;25.10;99.90
23681;DHT22;62915;50.832;4.462;2022-08-19T12:52:57;25.10;99.90
23681;DHT22;62915;50.832;4.462;2022-08-19T12:55:23;25.20;99.90
23681;DHT22;62915;50.832;4.462;2022-08-19T12:57:50;25.20;99.90
23681;DHT22;62915;50.832;4.462;2022-08-19T13:00:18;25.20;99.90
23681;DHT22;62915;50.832;4.462;2022-08-19T13:02:47;25.30;99.90
23681;DHT22;62915;50.832;4.462;2022-08-19T13:05:18;25.40;99.90
23681;DHT22;62915;50.832;4.462;2022-08-19T13:07:46;25.40;99.90
23681;DHT22;62915;50.832;4.462;2022-08-19T13:10:18;25.60;99.90
23681;DHT22;62915;50.832;4.462;2022-08-19T13:12:47;25.70;99.90
23681;DHT22;62915;50.832;4.462;2022-08-19T13:15:14;25.80;99.90
23681;DHT22;62915;50.832;4.462;2022-08-19T13:17:40;25.80;99.90
23681;DHT22;62915;50.832;4.462;2022-08-19T13:20:10;25.90;99.90
23681;DHT22;62915;50.832;4.462;2022-08-19T13:22:37;26.10;99.90
23681;DHT22;62915;50.832;4.462;2022-08-19T13:25:06;26.20;99.90
23681;DHT22;62915;50.832;4.462;2022-08-19T13:27:32;26.20;99.90
23681;DHT22;62915;50.832;4.462;2022-08-19T13:30:01;26.30;99.90
23681;DHT22;62915;50.832;4.462;2022-08-19T13:32:45;26.50;99.90
23681;DHT22;62915;50.832;4.462;2022-08-19T13:35:29;26.60;99.90
23681;DHT22;62915;50.832;4.462;2022-08-19T13:37:55;26.40;99.90
23681;DHT22;62915;50.832;4.462;2022-08-19T13:40:23;26.30;99.90
23681;DHT22;62915;50.832;4.462;2022-08-19T13:42:51;26.30;99.90
23681;DHT22;62915;50.832;4.462;2022-08-19T13:45:22;26.10;99.90
23681;DHT22;62915;50.832;4.462;2022-08-19T13:47:51;26.10;99.90
23681;DHT22;62915;50.832;4.462;2022-08-19T13:50:21;26.20;99.90
23681;DHT22;62915;50.832;4.462;2022-08-19T13:52:47;26.30;99.90
23681;DHT22;62915;50.832;4.462;2022-08-19T13:55:14;26.30;99.90
23681;DHT22;62915;50.832;4.462;2022-08-19T13:57:40;26.40;99.90
23681;DHT22;62915;50.832;4.462;2022-08-19T14:00:13;26.50;99.90
23681;DHT22;62915;50.832;4.462;2022-08-19T14:02:40;26.50;99.90
23681;DHT22;62915;50.832;4.462;2022-08-19T14:05:10;26.40;99.90
23681;DHT22;62915;50.832;4.462;2022-08-19T14:07:36;26.30;99.90
23681;DHT22;62915;50.832;4.462;2022-08-19T14:10:04;26.30;99.90
23681;DHT22;62915;50.832;4.462;2022-08-19T14:12:30;26.20;99.90
23681;DHT22;62915;50.832;4.462;2022-08-19T14:14:57;25.90;99.90
23681;DHT22;62915;50.832;4.462;2022-08-19T14:17:23;25.90;99.90
23681;DHT22;62915;50.832;4.462;2022-08-19T14:19:55;25.90;99.90
23681;DHT22;62915;50.832;4.462;2022-08-19T14:22:21;25.80;99.90
23681;DHT22;62915;50.832;4.462;2022-08-19T14:24:47;25.80;99.90
23681;DHT22;62915;50.832;4.462;2022-08-19T14:27:13;25.80;99.90
23681;DHT22;62915;50.832;4.462;2022-08-19T14:29:39;25.80;99.90
23681;DHT22;62915;50.832;4.462;2022-08-19T14:32:05;25.70;99.90
23681;DHT22;62915;50.832;4.462;2022-08-19T14:34:31;25.70;99.90
23681;DHT22;62915;50.832;4.462;2022-08-19T14:36:57;25.70;99.90
23681;DHT22;62915;50.832;4.462;2022-08-19T14:39:23;25.50;99.90
23681;DHT22;62915;50.832;4.462;2022-08-19T14:41:49;25.40;99.90
23681;DHT22;62915;50.832;4.462;2022-08-19T14:44:14;25.20;99.90
23681;DHT22;62915;50.832;4.462;2022-08-19T14:46:40;25.10;99.90
23681;DHT22;62915;50.832;4.462;2022-08-19T14:49:06;24.90;99.90
23681;DHT22;62915;50.832;4.462;2022-08-19T14:51:32;24.70;99.90
23681;DHT22;62915;50.832;4.462;2022-08-19T14:53:58;24.30;99.90
23681;DHT22;62915;50.832;4.462;2022-08-19T14:56:27;24.10;99.90
23681;DHT22;62915;50.832;4.462;2022-08-19T14:58:53;23.90;99.90
23681;DHT22;62915;50.832;4.462;2022-08-19T15:01:21;23.70;99.90
23681;DHT22;62915;50.832;4.462;2022-08-19T15:03:48;23.90;99.90
23681;DHT22;62915;50.832;4.462;2022-08-19T15:06:15;23.90;99.90
23681;DHT22;62915;50.832;4.462;2022-08-19T15:08:41;23.90;99.90
23681;DHT22;62915;50.832;4.462;2022-08-19T15:11:10;24.00;99.90
23681;DHT22;62915;50.832;4.462;2022-08-19T15:13:36;24.00;99.90
23681;DHT22;62915;50.832;4.462;2022-08-19T15:16:02;24.10;99.90
23681;DHT22;62915;50.832;4.462;2022-08-19T15:18:28;24.20;99.90
23681;DHT22;62915;50.832;4.462;2022-08-19T15:20:54;24.40;99.90
23681;DHT22;62915;50.832;4.462;2022-08-19T15:23:21;24.50;99.90
23681;DHT22;62915;50.832;4.462;2022-08-19T15:25:47;24.50;99.90
23681;DHT22;62915;50.832;4.462;2022-08-19T15:28:13;24.50;99.90
23681;DHT22;62915;50.832;4.462;2022-08-19T15:30:41;24.50;99.90
23681;DHT22;62915;50.832;4.462;2022-08-19T15:33:10;24.60;99.90
23681;DHT22;62915;50.832;4.462;2022-08-19T15:35:40;24.60;99.90
23681;DHT22;62915;50.832;4.462;2022-08-19T15:38:07;24.70;99.90
23681;DHT22;62915;50.832;4.462;2022-08-19T15:40:33;24.70;99.90
23681;DHT22;62915;50.832;4.462;2022-08-19T15:42:59;24.70;99.90
23681;DHT22;62915;50.832;4.462;2022-08-19T15:45:26;24.80;99.90
23681;DHT22;62915;50.832;4.462;2022-08-19T15:48:03;24.90;99.90